KMCO/MCO METAR and TAF weather

Enter ICAO airport designator
Station Type Date Time Source
KMCO METAR 2019/09/21 03:53 UTC NOAA

KMCO 210353Z 07008KT 10SM FEW060 23/19 A3015 RMK AO2 RAE39 SLP209 P0000 T02330189


Station Type Date Time Source
KMCO Decoded METAR 2019/09/21 03:53 UTC NOAA

ORLANDO INTERNATIONAL AIRPORT , FL, United States (KMCO) 28-25N 81-20W 29M
Sep 20, 2019 - 11:53 PM EDT / 2019.09.21 0353 UTC
Wind: from the ENE (070 degrees) at 9 MPH (8 KT):0
Visibility: 10 mile(s):0
Sky conditions: mostly clear
Precipitation last hour: A trace
Temperature: 73.9 F (23.3 C)
Dew Point: 66.0 F (18.9 C)
Relative Humidity: 76%
Pressure (altimeter): 30.15 in. Hg (1020 hPa)
ob: KMCO 210353Z 07008KT 10SM FEW060 23/19 A3015 RMK AO2 RAE39 SLP209 P0000 T02330189
cycle: 4

Station Type Date Time Source
KMCO TAF 2019/09/21 03:06 UTC NOAA

TAF
AMD KMCO 210302Z 2103/2206 06009KT P6SM SCT035
FM211400 07015G22KT P6SM SCT030
FM220000 06013KT P6SM FEW045 SCT070
FM220200 06008KT P6SM SCT040

Example: see airport list